Quincy, CA

12:16 AM PDT on September 02, 2014 (GMT -0700)
QUINCY RANGER DISTRICT | Change Station
CLOSE
Current Station
Personal Weather Station
Location: Quincy, CA
Elevation: 3553 ft
Nearby Weather Stations

Elev 3553 ft 39.97 °N, 120.94 °W | Updated 27 minutes ago

Clear
Clear
65.0 °F
Feels Like 65.0 °F
N
1.0
Wind Variable Wind from West

Today
High -- | Low -- °F
--% Chance of Precip.
Yesterday
High -- | Low -- °F
Precip. -- in
6:32 AM 7:33 PM
Waxing Crescent, 48% visible
Pressure 29.75 in
Visibility 10.0 miles
Clouds Clear
Dew Point 42 °F
Humidity 43%
Rainfall -999.00 in
Snow Depth Not available.
UV 0 out of 12
Pollen 8.10 out of 12
Air Quality Not available.
Flu Activity Not available.
METAR KBLU 020652Z AUTO 00000KT 10SM CLR 21/02 A3008 RMK AO2 SLP074 T02110022

More Conditions Fewer Conditions

Pressure 29.75 in
Visibility 10.0 miles
Clouds Clear
Dew Point 42 °F
Humidity 43%
Rainfall -999.00 in
Snow Depth Not available.
UV 0 out of 12
Pollen 8.10 out of 12
Air Quality Not available.
Flu Activity Not available.
METAR KBLU 020652Z AUTO 00000KT 10SM CLR 21/02 A3008 RMK AO2 SLP074 T02110022

More Conditions Fewer Conditions

10-Day Weather Forecast

Almanac

Astronomy

Sep. 02, 2014 Rise Set
Actual Time 6:32 AM PDT 7:33 PM PDT
Civil Twilight 6:04 AM PDT 8:00 PM PDT
Nautical Twilight 5:31 AM PDT 8:33 PM PDT
Astronomical Twilight 4:57 AM PDT 9:07 PM PDT
Moon 2:21 PM PDT No Moon Set
Length of Visible Light 13h 56m
Length of Day
13h 00m
Tomorrow will be 2m 31s shorter.
Waxing Crescent, 48% of the Moon is Illuminated
Today
Waxing Crescent
Sep 2
First Quarter
Sep 8
Full
Sep 15
Last Quarter
Sep 24
New

Community

WunderPhotos

Upload Photos

1,749,589 photos uploaded!

WunderBlogs® & News

Nearby

Snow Depth

Station Depth Elevation
CSS Lab 2 in 6900 ft
Tahoe City Cross 0 in 6750 ft
Rubicon #2 0 in 7500 ft
Fallen Leaf 0 in 6300 ft
Echo Peak 0 in 7800 ft

Earthquake Activity

City Distance Mag. Time & Date
Yountville, California 136 miles 2.6 1:15 PM PDT
2014-09-01
Green Valley, California 136 miles 2.5 6:37 AM PDT
2014-08-31
Napa, California 141 miles 3.2 1:56 AM PDT
2014-08-31
Minimum magnitude displayed is 2.5.

Coastal Water Temperatures

Place Temperature
No Stations Reporting

Nearby Weather Stations